createdAt,value
2018-10-11T00:00:52.483Z,16.60
2018-10-11T00:05:56.179Z,16.50
2018-10-11T00:11:00.100Z,16.50
2018-10-11T00:16:04.217Z,16.50
2018-10-11T00:21:08.655Z,16.40
2018-10-11T00:26:13.321Z,16.30
2018-10-11T00:31:17.333Z,16.40
2018-10-11T00:36:29.304Z,16.30
2018-10-11T00:41:32.947Z,16.30
2018-10-11T00:46:37.995Z,16.30
2018-10-11T00:51:41.634Z,16.30
2018-10-11T00:56:45.284Z,16.20
2018-10-11T01:01:48.914Z,16.10
2018-10-11T01:06:52.532Z,16.10
2018-10-11T01:11:56.409Z,16.10
2018-10-11T01:17:00.035Z,16.00
2018-10-11T01:22:10.053Z,15.80
2018-10-11T01:27:13.672Z,15.80
2018-10-11T01:32:17.291Z,15.80
2018-10-11T01:37:20.923Z,15.70
2018-10-11T01:42:24.653Z,15.60
2018-10-11T01:47:28.772Z,15.60
2018-10-11T01:52:32.440Z,15.50
2018-10-11T01:57:36.916Z,15.50
2018-10-11T02:02:40.655Z,15.40
2018-10-11T02:07:44.318Z,15.30
2018-10-11T02:12:49.299Z,15.30
2018-10-11T02:17:53.658Z,15.30
2018-10-11T02:22:57.521Z,15.30
2018-10-11T02:28:02.418Z,15.20
2018-10-11T02:33:06.038Z,15.10
2018-10-11T02:38:09.664Z,15.10
2018-10-11T02:43:14.609Z,15.10
2018-10-11T02:48:19.445Z,15.20
2018-10-11T02:53:23.070Z,15.10
2018-10-11T02:58:38.769Z,15.00
2018-10-11T03:03:42.396Z,14.90
2018-10-11T03:08:46.010Z,15.00
2018-10-11T03:13:52.788Z,15.00
2018-10-11T03:18:57.134Z,14.90
2018-10-11T03:24:01.260Z,14.90
2018-10-11T03:29:04.910Z,14.90
2018-10-11T03:34:08.526Z,14.80
2018-10-11T03:39:12.944Z,14.70
2018-10-11T03:44:16.574Z,14.80
2018-10-11T03:49:20.267Z,14.80
2018-10-11T03:54:24.295Z,14.70
2018-10-11T03:59:28.533Z,14.70
2018-10-11T04:04:33.155Z,14.70
2018-10-11T04:09:36.794Z,14.70
2018-10-11T04:14:40.434Z,14.50
2018-10-11T04:19:44.467Z,14.50
2018-10-11T04:24:48.072Z,14.50
2018-10-11T04:29:52.038Z,14.40
2018-10-11T04:34:55.728Z,14.40
2018-10-11T04:39:59.718Z,14.40
2018-10-11T04:45:03.746Z,14.30
2018-10-11T04:50:07.567Z,14.30
2018-10-11T04:55:11.512Z,14.30
2018-10-11T05:00:15.112Z,14.20
2018-10-11T05:05:18.775Z,14.20
2018-10-11T05:10:22.730Z,14.20
2018-10-11T05:15:27.523Z,14.20
2018-10-11T05:20:32.504Z,14.20
2018-10-11T05:25:36.387Z,14.30
2018-10-11T05:30:42.989Z,14.30
2018-10-11T05:35:47.996Z,14.30
2018-10-11T05:40:55.626Z,14.30
2018-10-11T05:46:01.627Z,14.40
2018-10-11T05:51:05.452Z,14.50
2018-10-11T05:56:09.350Z,14.50
2018-10-11T06:01:13.144Z,14.60
2018-10-11T06:06:16.808Z,14.70
2018-10-11T06:11:20.410Z,14.70
2018-10-11T06:16:24.027Z,14.80
2018-10-11T06:21:27.787Z,14.80
2018-10-11T06:26:31.392Z,14.90
2018-10-11T06:31:36.797Z,15.00
2018-10-11T06:36:43.935Z,15.10
2018-10-11T06:41:47.570Z,15.20
2018-10-11T06:46:52.814Z,15.20
2018-10-11T06:51:56.423Z,15.30
2018-10-11T06:57:00.925Z,15.40
2018-10-11T07:02:05.662Z,15.50
2018-10-11T07:07:09.324Z,15.70
2018-10-11T07:12:13.507Z,15.90
2018-10-11T07:17:17.128Z,16.10
2018-10-11T07:22:22.228Z,16.20
2018-10-11T07:27:25.871Z,16.40
2018-10-11T07:32:31.904Z,16.50
2018-10-11T07:37:36.791Z,16.70
2018-10-11T07:42:42.285Z,16.80
2018-10-11T07:47:46.760Z,16.90
2018-10-11T07:52:51.282Z,17.10
2018-10-11T07:57:55.138Z,17.30
2018-10-11T08:02:59.406Z,17.40
2018-10-11T08:08:03.711Z,17.50
2018-10-11T08:13:07.845Z,17.60
2018-10-11T08:18:11.925Z,17.80
2018-10-11T08:23:15.586Z,17.90
2018-10-11T08:28:19.335Z,18.20
2018-10-11T08:33:23.215Z,18.80
2018-10-11T08:38:27.099Z,18.90
2018-10-11T08:43:30.743Z,19.30
2018-10-11T08:48:34.942Z,19.50
2018-10-11T08:53:39.837Z,19.50
2018-10-11T08:58:43.348Z,19.60
2018-10-11T09:03:47.021Z,19.80
2018-10-11T09:08:50.661Z,20.00
2018-10-11T09:13:54.301Z,20.20
2018-10-11T09:18:58.375Z,20.40
2018-10-11T09:24:02.298Z,20.70
2018-10-11T09:29:05.896Z,21.10
2018-10-11T09:34:09.848Z,21.30
2018-10-11T09:39:13.466Z,21.30
2018-10-11T09:44:18.262Z,22.00
2018-10-11T09:49:21.922Z,23.60
2018-10-11T09:54:25.616Z,24.00
2018-10-11T09:59:29.114Z,23.70
2018-10-11T10:04:33.264Z,24.10
2018-10-11T10:09:36.907Z,23.40
2018-10-11T10:14:41.251Z,23.10
2018-10-11T10:19:45.378Z,23.10
2018-10-11T10:24:49.025Z,23.90
2018-10-11T10:29:52.656Z,25.30
2018-10-11T10:34:56.271Z,26.80
2018-10-11T10:39:59.978Z,26.90
2018-10-11T10:45:03.519Z,27.40
2018-10-11T10:50:07.139Z,27.50
2018-10-11T10:55:10.939Z,27.20
2018-10-11T11:00:14.563Z,27.10
2018-10-11T11:05:18.184Z,27.80
2018-10-11T11:10:21.907Z,27.50
2018-10-11T11:15:25.600Z,26.70
2018-10-11T11:20:29.218Z,27.20
2018-10-11T11:25:32.835Z,27.70
2018-10-11T11:30:36.468Z,29.50
2018-10-11T11:35:40.132Z,32.30
2018-10-11T11:40:43.742Z,32.90
2018-10-11T11:45:47.517Z,33.30
2018-10-11T11:50:51.212Z,33.30
2018-10-11T11:55:54.902Z,32.00
2018-10-11T12:00:58.514Z,31.10
2018-10-11T12:06:02.324Z,29.90
2018-10-11T12:11:06.191Z,29.50
2018-10-11T12:16:11.621Z,28.60
2018-10-11T12:21:15.393Z,28.20
2018-10-11T12:26:19.012Z,27.70
2018-10-11T12:31:22.630Z,27.30
2018-10-11T12:36:26.279Z,27.20
2018-10-11T12:41:29.858Z,26.50
2018-10-11T12:46:37.679Z,26.20
2018-10-11T12:51:37.152Z,25.70
2018-10-11T12:56:40.814Z,25.60
2018-10-11T13:01:44.352Z,25.60
2018-10-11T13:06:47.969Z,25.60
2018-10-11T13:11:51.584Z,25.60
2018-10-11T13:16:55.198Z,25.30
2018-10-11T13:21:58.920Z,25.30
2018-10-11T13:27:02.807Z,25.20
2018-10-11T13:32:06.450Z,25.20
2018-10-11T13:37:10.058Z,25.30
2018-10-11T13:42:13.679Z,25.30
2018-10-11T13:47:17.408Z,25.50
2018-10-11T13:52:22.513Z,25.40
2018-10-11T13:57:26.846Z,25.40
2018-10-11T14:02:28.267Z,25.30
2018-10-11T14:07:31.887Z,25.40
2018-10-11T14:12:35.500Z,25.20
2018-10-11T14:17:39.245Z,25.20
2018-10-11T14:22:42.924Z,25.40
2018-10-11T14:27:46.596Z,25.40
2018-10-11T14:32:50.236Z,25.60
2018-10-11T14:37:53.934Z,25.80
2018-10-11T14:42:57.574Z,26.40
2018-10-11T14:48:01.224Z,26.50
2018-10-11T14:53:04.851Z,26.10
2018-10-11T14:58:08.471Z,26.90
2018-10-11T15:03:12.085Z,30.00
2018-10-11T15:08:15.705Z,32.00
2018-10-11T15:13:19.327Z,33.40
2018-10-11T15:18:22.946Z,34.10
2018-10-11T15:23:26.562Z,34.50
2018-10-11T15:28:30.175Z,34.80
2018-10-11T15:33:33.882Z,34.80
2018-10-11T15:38:37.491Z,34.00
2018-10-11T15:43:41.112Z,31.90
2018-10-11T15:48:44.745Z,29.30
2018-10-11T15:53:48.475Z,27.50
2018-10-11T15:58:52.089Z,26.40
2018-10-11T16:03:55.790Z,25.60
2018-10-11T16:08:59.410Z,25.00
2018-10-11T16:14:03.069Z,24.60
2018-10-11T16:19:06.716Z,24.20
2018-10-11T16:24:10.358Z,23.90
2018-10-11T16:29:14.027Z,23.60
2018-10-11T16:34:17.739Z,23.30
2018-10-11T16:39:21.345Z,22.90
2018-10-11T16:44:24.997Z,22.60
2018-10-11T16:49:28.703Z,22.30
2018-10-11T16:54:32.402Z,22.00
2018-10-11T16:59:36.194Z,21.80
2018-10-11T17:04:39.854Z,21.50
2018-10-11T17:09:43.522Z,21.30
2018-10-11T17:14:47.055Z,21.10
2018-10-11T17:19:50.747Z,20.90
2018-10-11T17:24:54.359Z,20.80
2018-10-11T17:29:58.037Z,20.60
2018-10-11T17:35:01.814Z,20.50
2018-10-11T17:40:05.403Z,20.40
2018-10-11T17:45:09.083Z,20.40
2018-10-11T17:50:12.742Z,20.30
2018-10-11T17:55:16.426Z,20.30
2018-10-11T18:00:20.046Z,20.40
2018-10-11T18:05:23.661Z,20.40
2018-10-11T18:10:27.266Z,20.40
2018-10-11T18:15:30.885Z,20.40
2018-10-11T18:20:34.497Z,20.40
2018-10-11T18:25:38.222Z,20.40
2018-10-11T18:30:41.838Z,20.40
2018-10-11T18:35:45.632Z,20.30
2018-10-11T18:40:49.184Z,20.30
2018-10-11T18:45:53.260Z,20.20
2018-10-11T18:50:56.918Z,20.10
2018-10-11T18:56:00.575Z,20.10
2018-10-11T19:01:04.411Z,20.10
2018-10-11T19:06:08.137Z,20.00
2018-10-11T19:11:11.784Z,20.00
2018-10-11T19:16:15.429Z,19.80
2018-10-11T19:21:19.095Z,19.60
2018-10-11T19:26:22.748Z,19.50
2018-10-11T19:31:26.411Z,19.30
2018-10-11T19:36:30.051Z,19.20
2018-10-11T19:41:33.687Z,19.10
2018-10-11T19:46:37.452Z,18.90
2018-10-11T19:51:41.096Z,18.80
2018-10-11T19:56:46.241Z,18.70
2018-10-11T20:01:49.844Z,18.50
2018-10-11T20:06:53.495Z,18.40
2018-10-11T20:11:57.135Z,18.40
2018-10-11T20:17:00.773Z,18.30
2018-10-11T20:22:04.391Z,18.20
2018-10-11T20:27:08.014Z,18.10
2018-10-11T20:32:11.693Z,18.00
2018-10-11T20:37:16.131Z,17.90
2018-10-11T20:42:20.048Z,17.90
2018-10-11T20:47:23.682Z,17.90
2018-10-11T20:52:27.318Z,17.90
2018-10-11T20:57:30.986Z,17.90
2018-10-11T21:02:34.622Z,17.80
2018-10-11T21:07:38.280Z,17.80
2018-10-11T21:12:41.891Z,17.70
2018-10-11T21:17:45.511Z,17.60
2018-10-11T21:22:49.140Z,17.50
2018-10-11T21:27:52.940Z,17.50
2018-10-11T21:32:56.659Z,17.30
2018-10-11T21:38:00.336Z,17.30
2018-10-11T21:43:04.219Z,17.20
2018-10-11T21:48:08.334Z,17.20
2018-10-11T21:53:11.960Z,17.10
2018-10-11T21:58:15.814Z,17.10
2018-10-11T22:03:19.493Z,17.00
2018-10-11T22:08:23.160Z,17.00
2018-10-11T22:13:26.842Z,17.00
2018-10-11T22:18:30.450Z,16.80
2018-10-11T22:23:34.078Z,16.80
2018-10-11T22:28:38.207Z,16.70
2018-10-11T22:33:42.643Z,16.70
2018-10-11T22:38:46.264Z,16.70
2018-10-11T22:43:49.870Z,16.70
2018-10-11T22:48:53.499Z,16.80
2018-10-11T22:53:57.119Z,16.70
2018-10-11T22:59:00.744Z,16.70
2018-10-11T23:04:04.363Z,16.70
2018-10-11T23:09:08.485Z,16.70
2018-10-11T23:14:12.102Z,16.80
2018-10-11T23:19:15.718Z,16.70
2018-10-11T23:24:19.338Z,16.70
2018-10-11T23:29:23.082Z,16.70
2018-10-11T23:34:26.720Z,16.70
2018-10-11T23:39:30.376Z,16.70
2018-10-11T23:44:34.110Z,16.70
2018-10-11T23:49:37.768Z,16.60
2018-10-11T23:54:41.423Z,16.60
2018-10-11T23:59:45.068Z,16.50
